Time;durP1;ratioP1;P1;durP2;ratioP2;P2;SDS_P1;SDS_P2;PMS_P1;PMS_P2;Temp;Humidity;BMP_temperature;BMP_pressure;BME280_temperature;BME280_humidity;BME280_pressure;Samples;Min_cycle;Max_cycle;Signal;HPM_P1;HPM_P2
2021/11/26 00:02:13;;;;;;;25.17;17.73;;;;;;;11.27;45.48;99000.66;2234022;85;25785;-78
2021/11/26 00:05:34;;;;;;;24.40;18.00;;;;;;;11.27;45.49;99000.25;2257847;85;30591;-75
2021/11/26 00:08:55;;;;;;;22.02;16.65;;;;;;;11.25;45.49;98995.89;2263355;87;25754;-81
2021/11/26 00:12:17;;;;;;;25.10;18.05;;;;;;;11.24;45.52;98995.03;2263714;86;31365;-85
2021/11/26 00:15:41;;;;;;;26.10;17.65;;;;;;;11.23;45.53;98999.79;2262351;87;25639;-77
2021/11/26 00:19:05;;;;;;;20.45;16.62;;;;;;;11.23;45.49;98980.66;2263016;87;26145;-76
2021/11/26 00:22:26;;;;;;;25.77;18.52;;;;;;;11.20;45.49;98973.70;2259189;86;25661;-82
2021/11/26 00:25:48;;;;;;;26.68;18.27;;;;;;;11.19;45.43;98985.46;2265138;86;25807;-78
2021/11/26 00:29:09;;;;;;;23.83;18.45;;;;;;;11.17;45.46;98991.10;2263873;85;25630;-75
2021/11/26 00:32:30;;;;;;;25.10;18.25;;;;;;;11.16;45.42;98982.41;2259960;86;26284;-75
2021/11/26 00:35:52;;;;;;;27.85;19.45;;;;;;;11.16;45.48;98988.07;2263629;87;25706;-92
2021/11/26 00:39:13;;;;;;;25.68;18.20;;;;;;;11.14;45.54;98986.78;2264100;87;25210;-76
2021/11/26 00:42:34;;;;;;;27.27;19.07;;;;;;;11.14;45.55;98996.31;2259639;87;25755;-74
2021/11/26 00:45:56;;;;;;;23.77;17.20;;;;;;;11.12;45.51;99018.50;2221795;87;25720;-75
2021/11/26 00:49:17;;;;;;;25.17;18.32;;;;;;;11.11;45.53;98998.08;2264050;85;25734;-88
2021/11/26 00:52:38;;;;;;;27.37;18.52;;;;;;;11.09;45.55;98993.28;2263535;87;25682;-77
2021/11/26 00:55:59;;;;;;;24.85;17.73;;;;;;;11.10;45.57;98987.63;2261989;86;30877;-83
2021/11/26 00:59:20;;;;;;;24.20;17.67;;;;;;;11.10;45.58;98971.98;2257793;87;25183;-75
2021/11/26 01:02:41;;;;;;;23.35;16.93;;;;;;;11.09;45.59;98978.94;2260565;87;31333;-77
2021/11/26 01:06:08;;;;;;;24.70;17.60;;;;;;;11.09;45.58;98972.86;2244604;84;26216;-75
2021/11/26 01:09:29;;;;;;;24.72;17.50;;;;;;;11.06;45.61;98973.73;2308062;84;25323;-78
2021/11/26 01:12:51;;;;;;;23.92;18.65;;;;;;;11.06;45.59;98970.25;2307515;84;30894;-78
2021/11/26 01:16:12;;;;;;;27.00;17.37;;;;;;;11.05;45.59;98961.56;2313142;84;25889;-84
2021/11/26 01:19:35;;;;;;;23.92;17.25;;;;;;;11.04;45.60;98959.84;2312317;84;25588;-82
2021/11/26 01:22:58;;;;;;;26.60;18.27;;;;;;;11.04;45.62;98968.97;2307174;84;25718;-87
2021/11/26 01:26:22;;;;;;;22.75;17.60;;;;;;;11.04;45.62;98962.89;2291954;84;25797;-82
2021/11/26 01:29:43;;;;;;;26.37;19.10;;;;;;;11.02;45.58;98958.09;2322889;84;25901;-78
2021/11/26 01:33:08;;;;;;;26.25;17.17;;;;;;;11.01;45.60;98953.77;2313365;84;25751;-86
2021/11/26 01:36:29;;;;;;;24.55;17.60;;;;;;;11.01;45.65;98958.98;2310154;84;25328;-85
2021/11/26 01:39:51;;;;;;;23.35;18.05;;;;;;;11.00;45.64;98952.00;2319071;84;25701;-81
2021/11/26 01:43:20;;;;;;;26.00;18.40;;;;;;;11.00;45.62;98957.22;2308480;84;25731;-74
2021/11/26 01:46:43;;;;;;;25.10;18.57;;;;;;;10.98;45.64;98962.45;2318975;84;25642;-79
2021/11/26 01:50:10;;;;;;;25.65;18.45;;;;;;;10.98;45.68;98960.28;2305479;84;25214;-86
2021/11/26 01:53:34;;;;;;;23.87;17.70;;;;;;;10.98;45.66;98951.16;2276972;84;25668;-86
2021/11/26 01:56:55;;;;;;;22.95;17.67;;;;;;;10.96;45.66;98951.14;2261400;86;25732;-86
2021/11/26 02:00:25;;;;;;;25.12;18.37;;;;;;;10.96;45.69;98955.48;2262340;86;25746;-84
2021/11/26 02:03:48;;;;;;;26.68;18.05;;;;;;;10.95;45.71;98945.94;2263324;87;25772;-87
2021/11/26 02:07:09;;;;;;;26.20;18.00;;;;;;;10.94;45.76;98935.95;2261568;85;25669;-87
2021/11/26 02:10:32;;;;;;;23.57;17.25;;;;;;;10.93;45.77;98936.80;2262973;85;25679;-78
2021/11/26 02:13:56;;;;;;;23.05;17.95;;;;;;;10.94;45.78;98933.34;2262239;87;25650;-87
2021/11/26 02:17:17;;;;;;;24.82;17.65;;;;;;;10.93;45.77;98909.86;2260822;85;25690;-82
2021/11/26 02:20:39;;;;;;;23.18;16.65;;;;;;;10.92;45.83;98916.82;2263516;87;25592;-83
2021/11/26 02:24:00;;;;;;;24.02;18.20;;;;;;;10.92;45.86;98922.47;2261868;86;25227;-80
2021/11/26 02:27:21;;;;;;;24.02;17.52;;;;;;;10.90;45.86;98910.76;2263168;85;30375;-89
2021/11/26 02:30:43;;;;;;;25.45;17.45;;;;;;;10.91;45.87;98905.97;2262991;87;28965;-86
2021/11/26 02:34:07;;;;;;;23.02;17.45;;;;;;;10.90;45.86;98905.55;2261024;86;25648;-88
2021/11/26 02:37:28;;;;;;;23.22;17.73;;;;;;;10.88;45.91;98900.31;2263051;85;25730;-89
2021/11/26 02:40:53;;;;;;;27.82;18.66;;;;;;;10.88;45.88;98893.80;2261223;87;31009;-86
2021/11/26 02:44:14;;;;;;;26.52;17.73;;;;;;;10.88;45.89;98881.20;2234691;87;25757;-79
2021/11/26 02:47:38;;;;;;;25.57;17.40;;;;;;;10.87;45.88;98889.91;2263466;86;25746;-77
2021/11/26 02:50:59;;;;;;;22.98;17.37;;;;;;;10.85;45.90;98885.98;2263581;86;25710;-74
2021/11/26 02:54:20;;;;;;;21.73;16.50;;;;;;;10.85;45.91;98878.59;2263874;87;25528;-87
2021/11/26 02:57:41;;;;;;;26.95;18.12;;;;;;;10.83;45.93;98869.49;2263071;85;25639;-82
2021/11/26 03:01:03;;;;;;;21.82;17.00;;;;;;;10.83;45.92;98873.81;2263230;85;25674;-86
2021/11/26 03:04:28;;;;;;;27.00;17.30;;;;;;;10.80;45.93;98878.61;2262625;86;25766;-76
2021/11/26 03:07:49;;;;;;;22.05;18.07;;;;;;;10.80;45.92;98879.92;2234874;87;25698;-80
2021/11/26 03:11:11;;;;;;;24.63;17.87;;;;;;;10.80;45.93;98884.23;2234132;87;25777;-85
2021/11/26 03:14:34;;;;;;;23.02;15.65;;;;;;;10.77;45.99;98876.02;2263652;86;26354;-78
2021/11/26 03:17:55;;;;;;;20.88;16.48;;;;;;;10.77;45.98;98868.63;2260902;85;25611;-74
2021/11/26 03:21:16;;;;;;;23.38;16.82;;;;;;;10.77;45.94;98864.72;2261100;87;25658;-89
2021/11/26 03:24:41;;;;;;;20.48;16.48;;;;;;;10.75;45.97;98872.53;2263300;86;30758;-88
2021/11/26 03:28:02;;;;;;;23.05;16.97;;;;;;;10.74;45.95;98877.76;2263725;87;25754;-85
2021/11/26 03:31:23;;;;;;;27.35;17.35;;;;;;;10.72;45.92;98876.88;2263703;86;25731;-82
2021/11/26 03:34:44;;;;;;;22.20;17.05;;;;;;;10.72;45.91;98867.75;2259681;86;25694;-78
2021/11/26 03:38:05;;;;;;;22.77;16.45;;;;;;;10.70;45.95;98866.88;2262083;85;25223;-77
2021/11/26 03:41:27;;;;;;;20.65;16.60;;;;;;;10.70;45.97;98861.25;2262203;87;25682;-90
2021/11/26 03:44:48;;;;;;;20.80;16.52;;;;;;;10.69;45.97;98850.81;2234323;87;31424;-83
2021/11/26 03:48:11;;;;;;;21.77;17.02;;;;;;;10.69;45.99;98854.72;2263659;87;25622;-91
2021/11/26 03:51:33;;;;;;;26.93;18.00;;;;;;;10.68;46.01;98853.86;2262486;85;29020;-86
2021/11/26 03:54:54;;;;;;;22.30;16.90;;;;;;;10.68;46.02;98859.08;2261849;87;25690;-88
2021/11/26 03:58:15;;;;;;;23.86;17.12;;;;;;;10.67;46.06;98857.79;2263794;86;29262;-90
2021/11/26 04:01:39;;;;;;;23.10;17.42;;;;;;;10.67;46.05;98860.39;2261872;85;25663;-80
2021/11/26 04:05:00;;;;;;;22.13;17.42;;;;;;;10.66;46.06;98858.63;2263501;85;25670;-86
2021/11/26 04:08:21;;;;;;;22.75;18.02;;;;;;;10.64;46.12;98863.42;2263495;87;25749;-81
2021/11/26 04:11:42;;;;;;;25.88;18.17;;;;;;;10.64;46.11;98862.12;2263672;86;30421;-89
2021/11/26 04:15:08;;;;;;;22.83;17.70;;;;;;;10.64;46.13;98862.56;2263380;85;30109;-87
2021/11/26 04:18:29;;;;;;;25.27;18.07;;;;;;;10.64;46.16;98862.56;2263621;85;25607;-87
2021/11/26 04:21:51;;;;;;;24.75;17.65;;;;;;;10.63;46.19;98856.48;2262222;85;26382;-89
2021/11/26 04:25:16;;;;;;;25.08;18.10;;;;;;;10.62;46.21;98862.98;2263022;85;26351;-84
2021/11/26 04:28:38;;;;;;;27.15;18.73;;;;;;;10.62;46.23;98869.50;2234212;85;25804;-75
2021/11/26 04:31:59;;;;;;;23.37;17.83;;;;;;;10.60;46.24;98874.72;2263104;86;29436;-85
2021/11/26 04:35:20;;;;;;;27.73;18.60;;;;;;;10.61;46.23;98862.56;2261711;86;25698;-86
2021/11/26 04:38:43;;;;;;;23.22;18.32;;;;;;;10.59;46.23;98857.33;2259890;86;25648;-78
2021/11/26 04:42:04;;;;;;;24.75;18.27;;;;;;;10.58;46.25;98853.00;2258697;87;25698;-77
2021/11/26 04:45:31;;;;;;;26.12;18.40;;;;;;;10.57;46.24;98851.27;2262813;85;25773;-75
2021/11/26 04:48:52;;;;;;;22.70;18.35;;;;;;;10.57;46.25;98833.47;2261684;85;26030;-75
2021/11/26 04:52:13;;;;;;;25.75;18.17;;;;;;;10.57;46.25;98823.05;2261399;86;25751;-87
2021/11/26 04:55:34;;;;;;;23.65;17.77;;;;;;;10.57;46.25;98826.96;2263768;87;30222;-81
2021/11/26 04:58:55;;;;;;;27.60;17.60;;;;;;;10.56;46.27;98819.58;2263232;87;30495;-89
2021/11/26 05:02:17;;;;;;;27.80;19.37;;;;;;;10.55;46.28;98812.61;2263746;87;25733;-83
2021/11/26 05:05:38;;;;;;;23.10;18.25;;;;;;;10.54;46.28;98817.84;2260400;87;25762;-85
2021/11/26 05:09:00;;;;;;;23.55;17.60;;;;;;;10.54;46.31;98819.14;2262891;85;29525;-81
2021/11/26 05:12:21;;;;;;;24.07;17.87;;;;;;;10.53;46.30;98827.40;2250937;85;26040;-76
2021/11/26 05:15:42;;;;;;;24.65;17.95;;;;;;;10.53;46.32;98830.41;2232600;87;25440;-80
2021/11/26 05:19:03;;;;;;;26.75;18.75;;;;;;;10.53;46.31;98826.50;2263448;85;30079;-86
2021/11/26 05:22:25;;;;;;;21.62;17.05;;;;;;;10.54;46.33;98826.96;2240477;87;25701;-78
2021/11/26 05:25:47;;;;;;;26.97;17.57;;;;;;;10.54;46.35;98826.96;2263357;86;25805;-81
2021/11/26 05:29:08;;;;;;;28.12;18.48;;;;;;;10.54;46.36;98831.73;2263244;86;25753;-83
2021/11/26 05:32:32;;;;;;;24.65;17.65;;;;;;;10.53;46.37;98823.90;2262927;85;25662;-77
2021/11/26 05:35:53;;;;;;;23.52;18.40;;;;;;;10.53;46.42;98826.09;2263041;86;25728;-76
2021/11/26 05:39:14;;;;;;;21.82;16.40;;;;;;;10.54;46.42;98820.00;2263352;87;25667;-86
2021/11/26 05:42:36;;;;;;;27.58;17.67;;;;;;;10.56;46.44;98829.11;2263449;87;25773;-85
2021/11/26 05:45:57;;;;;;;26.15;17.15;;;;;;;10.55;46.45;98820.87;2263462;86;25201;-75
2021/11/26 05:49:18;;;;;;;24.25;17.45;;;;;;;10.56;46.45;98822.59;2263050;85;30178;-83
2021/11/26 05:52:42;;;;;;;25.30;17.03;;;;;;;10.55;46.48;98817.83;2263728;86;28975;-91
2021/11/26 05:56:08;;;;;;;21.70;16.15;;;;;;;10.56;46.47;98824.80;2263948;86;25897;-78
2021/11/26 05:59:31;;;;;;;22.50;16.62;;;;;;;10.55;46.49;98828.25;2171501;88;25742;-86
2021/11/26 06:02:53;;;;;;;21.17;16.62;;;;;;;10.56;46.50;98841.73;2215918;87;25924;-74
2021/11/26 06:06:15;;;;;;;22.58;17.32;;;;;;;10.56;46.52;98838.23;2217178;87;26353;-76
2021/11/26 06:09:39;;;;;;;25.95;17.87;;;;;;;10.56;46.52;98837.82;2215916;87;25877;-84
2021/11/26 06:13:20;;;;;;;26.25;17.25;;;;;;;10.57;46.55;98834.78;2234249;87;25779;-76
2021/11/26 06:16:44;;;;;;;20.20;16.07;;;;;;;10.57;46.56;98829.13;2213850;87;25760;-74
2021/11/26 06:20:14;;;;;;;22.62;16.80;;;;;;;10.58;46.57;98821.73;2211757;87;25983;-77
2021/11/26 06:23:38;;;;;;;21.20;16.37;;;;;;;10.58;46.60;98820.43;2172296;89;25496;-73
2021/11/26 06:26:59;;;;;;;22.20;15.85;;;;;;;10.59;46.60;98831.71;2168802;89;25785;-79
2021/11/26 06:30:23;;;;;;;20.40;15.95;;;;;;;10.59;46.61;98829.11;2171513;89;29652;-83
2021/11/26 06:33:46;;;;;;;21.73;16.45;;;;;;;10.58;46.63;98825.64;2176165;89;25721;-81
2021/11/26 06:37:07;;;;;;;20.40;16.15;;;;;;;10.58;46.65;98831.29;2178345;88;25307;-84
2021/11/26 06:40:28;;;;;;;21.75;16.60;;;;;;;10.58;46.66;98837.36;2231122;87;25819;-84
2021/11/26 06:43:53;;;;;;;23.87;16.32;;;;;;;10.59;46.69;98840.83;2225306;88;25751;-85
2021/11/26 06:47:14;;;;;;;22.05;15.60;;;;;;;10.60;46.70;98837.38;2224968;88;25540;-82
2021/11/26 06:50:38;;;;;;;19.60;15.60;;;;;;;10.60;46.71;98838.69;2225809;88;31130;-79
2021/11/26 06:53:59;;;;;;;18.67;15.25;;;;;;;10.60;46.73;98826.96;2225853;88;25726;-84
2021/11/26 06:57:21;;;;;;;21.93;16.60;;;;;;;10.60;46.75;98823.05;2223583;88;25687;-77
2021/11/26 07:00:41;;;;;;;20.52;15.30;;;;;;;10.62;46.76;98828.66;2226087;88;25721;-83
2021/11/26 07:04:03;;;;;;;19.63;16.13;;;;;;;10.63;46.77;98812.19;2225337;87;29419;-85
2021/11/26 07:07:25;;;;;;;20.80;15.38;;;;;;;10.64;46.78;98833.89;2227064;88;26304;-78
2021/11/26 07:10:47;;;;;;;18.95;15.18;;;;;;;10.65;46.81;98830.41;2256757;85;25862;-85
2021/11/26 07:14:08;;;;;;;21.40;16.93;;;;;;;10.67;46.83;98840.41;2264056;87;25770;-86
2021/11/26 07:17:29;;;;;;;20.85;15.18;;;;;;;10.67;46.85;98841.71;2262635;86;25323;-76
2021/11/26 07:20:50;;;;;;;21.62;16.93;;;;;;;10.68;46.84;98835.62;2263217;87;29841;-86
2021/11/26 07:24:12;;;;;;;19.67;15.80;;;;;;;10.69;46.84;98833.88;2262682;85;44255;-86
2021/11/26 07:27:33;;;;;;;24.18;16.12;;;;;;;10.70;46.86;98848.63;2264806;87;29652;-76
2021/11/26 07:30:55;;;;;;;22.52;16.07;;;;;;;10.70;46.85;98848.23;2259838;87;25776;-79
2021/11/26 07:34:17;;;;;;;22.67;16.10;;;;;;;10.70;46.87;98841.70;2230330;87;26007;-81
2021/11/26 07:37:46;;;;;;;20.95;15.43;;;;;;;10.70;46.89;98838.20;2261199;87;25849;-81
2021/11/26 07:41:09;;;;;;;23.87;16.00;;;;;;;10.71;46.90;98832.15;2264875;87;25807;-79
2021/11/26 07:44:33;;;;;;;24.07;16.17;;;;;;;10.71;46.91;98815.20;2271514;86;25954;-81
2021/11/26 07:47:54;;;;;;;28.42;16.87;;;;;;;10.72;46.95;98816.93;2265841;86;25701;-80
2021/11/26 07:51:16;;;;;;;21.97;16.30;;;;;;;10.73;46.97;98811.73;2267999;87;25696;-80
2021/11/26 07:54:38;;;;;;;30.02;18.32;;;;;;;10.75;46.99;98807.37;2265084;87;25741;-80
2021/11/26 07:57:59;;;;;;;25.85;18.55;;;;;;;11.04;49.85;98807.73;2259312;85;26261;-78
2021/11/26 08:01:19;;;;;;;26.30;19.50;;;;;;;11.02;48.66;98806.86;2264187;87;31549;-76
2021/11/26 08:04:40;;;;;;;29.65;18.27;;;;;;;10.92;48.70;98803.41;2260335;85;25620;-83
2021/11/26 08:08:08;;;;;;;26.80;18.73;;;;;;;10.91;49.13;98813.86;2260165;86;29044;-78
2021/11/26 08:11:25;;;;;;;26.40;18.12;;;;;;;10.90;49.24;98813.00;2250552;87;25808;-79
2021/11/26 08:14:51;;;;;;;23.50;17.20;;;;;;;11.05;52.02;98818.58;2254656;85;25734;-80
2021/11/26 08:18:13;;;;;;;31.55;21.40;;;;;;;11.46;53.72;98820.14;2257260;87;25770;-80
2021/11/26 08:21:35;;;;;;;32.48;21.80;;;;;;;11.98;52.90;98820.74;2255839;87;25716;-81
2021/11/26 08:24:56;;;;;;;27.48;19.50;;;;;;;12.37;53.55;98824.35;2258034;87;25750;-87
2021/11/26 08:28:26;;;;;;;37.30;22.33;;;;;;;12.50;52.05;98826.84;2255984;85;31779;-79
2021/11/26 08:31:47;;;;;;;30.82;19.90;;;;;;;12.39;49.75;98825.22;2247300;87;25918;-80
2021/11/26 08:35:22;;;;;;;31.45;22.32;;;;;;;12.38;50.74;98815.17;2248214;86;25747;-81
2021/11/26 08:38:44;;;;;;;32.85;22.55;;;;;;;12.56;48.71;98823.31;2253510;85;25715;-76
2021/11/26 08:42:05;;;;;;;31.33;21.93;;;;;;;12.32;47.73;98816.56;2261610;85;25725;-76
2021/11/26 08:45:26;;;;;;;38.05;23.15;;;;;;;12.08;47.22;98818.91;2257235;85;25684;-77
2021/11/26 08:48:47;;;;;;;34.25;22.17;;;;;;;11.94;47.08;98815.53;2257787;87;25898;-77
2021/11/26 08:52:10;;;;;;;30.08;22.17;;;;;;;11.84;46.92;98812.11;2255805;87;25247;-78
2021/11/26 08:55:39;;;;;;;32.48;22.58;;;;;;;11.77;46.72;98817.78;2257790;85;25780;-76
2021/11/26 08:59:01;;;;;;;32.15;21.97;;;;;;;11.70;46.49;98812.17;2257744;85;25733;-78
2021/11/26 09:02:27;;;;;;;31.05;21.27;;;;;;;11.65;46.47;98814.41;2261384;87;25653;-77
2021/11/26 09:05:48;;;;;;;26.68;18.70;;;;;;;11.62;46.56;98811.81;2210967;88;25771;-77
2021/11/26 09:09:09;;;;;;;18.12;15.63;;;;;;;11.63;46.75;98809.17;2201670;89;31074;-77
2021/11/26 09:12:31;;;;;;;25.55;18.70;;;;;;;11.68;47.92;98801.34;2178074;90;25946;-75
2021/11/26 09:15:52;;;;;;;25.17;19.75;;;;;;;11.78;47.42;98799.09;2177373;89;25894;-78
2021/11/26 09:19:13;;;;;;;28.25;20.82;;;;;;;11.77;47.11;98803.86;2177911;90;25665;-79
2021/11/26 09:22:35;;;;;;;29.77;20.25;;;;;;;11.72;47.05;98802.60;2177866;90;25303;-79
2021/11/26 09:25:56;;;;;;;24.92;18.85;;;;;;;11.72;47.08;98793.46;2178207;90;25920;-80
2021/11/26 09:29:17;;;;;;;30.95;19.67;;;;;;;11.71;47.10;98789.54;2177896;90;25844;-78
2021/11/26 09:32:38;;;;;;;27.77;19.80;;;;;;;11.72;47.16;98785.63;2178188;90;25917;-79
2021/11/26 09:36:00;;;;;;;27.62;18.85;;;;;;;11.71;47.08;98784.31;2176381;90;25799;-78
2021/11/26 09:39:21;;;;;;;25.40;18.90;;;;;;;11.71;47.16;98772.57;2174188;87;25872;-77
2021/11/26 09:42:43;;;;;;;28.70;19.35;;;;;;;11.69;46.99;98759.55;2178067;90;25728;-78
2021/11/26 09:46:05;;;;;;;26.33;19.95;;;;;;;11.66;46.93;98756.95;2178004;87;25752;-78
2021/11/26 09:49:27;;;;;;;32.38;20.00;;;;;;;11.63;46.88;98754.80;2178268;90;25859;-78
2021/11/26 09:52:48;;;;;;;30.17;19.65;;;;;;;11.59;46.88;98748.30;2177664;90;25796;-78
2021/11/26 09:56:10;;;;;;;28.30;19.65;;;;;;;11.61;46.98;98744.39;2177603;90;25732;-77
2021/11/26 09:59:31;;;;;;;26.97;19.37;;;;;;;11.61;47.17;98735.67;2178400;90;25851;-78
2021/11/26 10:03:01;;;;;;;23.30;17.17;;;;;;;11.64;47.33;98739.56;2238461;87;26396;-77
2021/11/26 10:06:37;;;;;;;34.03;18.37;;;;;;;11.69;47.52;98732.58;2256901;87;25230;-77
2021/11/26 10:09:54;;;;;;;29.67;17.85;;;;;;;11.71;47.59;98728.20;2257276;87;25498;-78
2021/11/26 10:13:17;;;;;;;26.55;18.32;;;;;;;11.72;47.63;98719.52;2231664;87;25770;-78
2021/11/26 10:16:52;;;;;;;26.00;16.57;;;;;;;11.70;47.56;98711.67;2258483;84;25741;-79
2021/11/26 10:20:13;;;;;;;21.42;16.55;;;;;;;11.72;47.70;98707.77;2258981;87;26066;-76
2021/11/26 10:23:42;;;;;;;20.97;16.50;;;;;;;11.73;47.72;98712.95;2260916;87;25413;-77
2021/11/26 10:27:04;;;;;;;27.52;16.45;;;;;;;11.74;47.78;98708.59;2257883;87;25738;-77
2021/11/26 10:30:36;;;;;;;22.25;16.42;;;;;;;11.74;47.81;98703.38;2257483;87;25845;-77
2021/11/26 10:34:02;;;;;;;25.55;17.42;;;;;;;11.74;47.99;98696.85;2259425;87;25744;-77
2021/11/26 10:37:24;;;;;;;32.30;17.62;;;;;;;11.73;47.85;98697.30;2235344;87;25968;-79
2021/11/26 10:40:50;;;;;;;24.95;17.92;;;;;;;11.70;47.83;98693.40;2260862;86;25689;-77
2021/11/26 10:44:12;;;;;;;23.73;16.95;;;;;;;11.70;47.81;98691.23;2256501;86;26167;-77
2021/11/26 10:48:19;;;;;;;32.33;19.48;;;;;;;11.66;47.59;98693.00;2262178;87;25718;-79
2021/11/26 10:59:01;;;;;;;25.50;18.33;;;;;;;11.53;47.32;98681.79;2257380;86;25896;-80
2021/11/26 11:02:34;;;;;;;26.60;18.92;;;;;;;11.39;47.20;98655.38;2259812;86;26451;-80
2021/11/26 11:05:57;;;;;;;24.98;17.25;;;;;;;11.49;47.22;98670.95;2221574;88;25837;-80
2021/11/26 11:09:18;;;;;;;28.50;18.00;;;;;;;11.46;47.11;98657.92;2218752;88;25874;-80
2021/11/26 11:12:39;;;;;;;23.98;16.62;;;;;;;11.43;47.08;98654.03;2220337;87;30940;-80
2021/11/26 11:16:10;;;;;;;24.67;17.48;;;;;;;11.45;47.23;98650.98;2221246;87;25982;-80
2021/11/26 11:19:31;;;;;;;24.35;17.82;;;;;;;11.47;47.35;98644.44;2218057;87;25754;-80
2021/11/26 11:22:52;;;;;;;30.27;17.45;;;;;;;11.47;47.27;98634.00;2215491;89;25862;-80
2021/11/26 11:26:15;;;;;;;22.85;17.27;;;;;;;11.47;47.25;98633.55;2216354;88;26005;-80
2021/11/26 11:29:36;;;;;;;28.23;16.95;;;;;;;11.46;47.22;98623.14;2219503;88;25705;-80
2021/11/26 11:32:58;;;;;;;35.65;19.87;;;;;;;11.46;47.13;98620.53;2219462;87;25791;-80
2021/11/26 11:36:20;;;;;;;28.32;19.67;;;;;;;11.42;46.91;98606.65;2221306;87;26071;-78
2021/11/26 11:40:07;;;;;;;28.15;19.42;;;;;;;11.38;46.84;98608.87;2218822;87;26890;-77
2021/11/26 11:43:26;;;;;;;35.88;19.60;;;;;;;11.35;46.76;98608.45;2221559;87;26579;-78
2021/11/26 11:46:54;;;;;;;24.95;18.10;;;;;;;11.35;46.76;98600.62;2217325;87;25867;-79
2021/11/26 11:50:26;;;;;;;28.47;18.80;;;;;;;11.39;46.82;98599.30;2218289;88;25826;-77
2021/11/26 11:53:47;;;;;;;15.15;11.25;;;;;;;11.41;46.78;98602.77;2205041;89;26038;-77
2021/11/26 11:57:27;;;;;;;16.02;12.63;;;;;;;11.76;49.12;98582.41;2181006;88;25833;-77
2021/11/26 12:00:53;;;;;;;16.95;12.23;;;;;;;12.41;49.19;98569.95;2182549;90;25827;-78
2021/11/26 12:04:21;;;;;;;20.43;12.90;;;;;;;12.97;49.04;98561.32;2224356;88;26268;-78
2021/11/26 12:07:49;;;;;;;19.05;12.07;;;;;;;13.43;48.99;98558.42;2228952;87;25760;-76
2021/11/26 12:11:12;;;;;;;17.73;12.45;;;;;;;13.83;48.86;98559.02;2259969;85;25722;-78
2021/11/26 12:14:53;;;;;;;17.50;13.15;;;;;;;14.14;48.76;98552.31;2260387;85;25856;-82
2021/11/26 12:18:16;;;;;;;20.85;13.58;;;;;;;14.43;48.85;98553.91;2261773;86;25770;-77
2021/11/26 12:21:42;;;;;;;28.50;14.50;;;;;;;14.74;48.81;98560.23;2259874;86;25743;-78
2021/11/26 12:25:08;;;;;;;20.43;15.53;;;;;;;15.01;49.03;98566.61;2258741;85;25612;-79
2021/11/26 12:28:57;;;;;;;24.47;17.25;;;;;;;15.27;48.18;98566.45;2223742;88;25781;-78
2021/11/26 12:32:31;;;;;;;28.92;17.37;;;;;;;14.72;46.42;98546.77;2225648;87;25710;-81
2021/11/26 12:36:06;;;;;;;35.50;20.65;;;;;;;14.72;46.42;98546.77;2224787;88;25746;-79
2021/11/26 12:39:32;;;;;;;26.65;20.62;;;;;;;13.93;45.18;98519.52;2225524;88;26204;-79
2021/11/26 12:43:06;;;;;;;34.35;23.05;;;;;;;13.93;45.18;98519.52;2223128;88;25827;-77
2021/11/26 12:47:07;;;;;;;36.10;23.85;;;;;;;13.16;44.56;98479.50;2215768;87;25938;-78
2021/11/26 12:58:10;;;;;;;37.67;23.57;;;;;;;12.75;44.46;98503.69;2196546;88;26335;-77
2021/11/26 13:01:32;;;;;;;40.12;25.02;;;;;;;12.57;44.65;98493.07;2226744;88;25777;-76
2021/11/26 13:04:58;;;;;;;39.33;24.15;;;;;;;12.47;44.78;98491.03;2226079;87;25747;-77
2021/11/26 13:08:19;;;;;;;34.88;24.43;;;;;;;12.42;44.88;98505.03;2222070;88;25696;-82
2021/11/26 13:11:47;;;;;;;25.25;18.42;;;;;;;12.35;44.96;98500.37;2222164;87;25936;-78
2021/11/26 13:15:13;;;;;;;29.05;20.45;;;;;;;12.73;49.52;98495.88;2207368;87;25675;-77
2021/11/26 13:18:34;;;;;;;29.10;20.92;;;;;;;12.82;49.14;98494.86;2181338;88;25809;-75
2021/11/26 13:21:58;;;;;;;32.60;22.02;;;;;;;12.72;49.03;98486.31;2209382;88;25713;-76
2021/11/26 13:25:34;;;;;;;30.57;18.32;;;;;;;12.60;48.88;98462.11;2209334;87;26037;-80
2021/11/26 13:28:58;;;;;;;35.85;20.57;;;;;;;12.56;51.06;98466.52;2206389;89;25867;-77
2021/11/26 13:32:22;;;;;;;33.80;20.90;;;;;;;12.67;50.48;98455.45;2210054;89;25729;-76
2021/11/26 13:36:15;;;;;;;42.48;22.07;;;;;;;12.56;50.03;98454.77;2209167;89;25841;-80
2021/11/26 13:39:36;;;;;;;36.70;21.55;;;;;;;12.44;49.76;98454.48;2209776;89;25645;-77
2021/11/26 13:43:18;;;;;;;36.60;21.25;;;;;;;12.31;49.45;98445.09;2206186;87;25647;-76
2021/11/26 13:47:06;;;;;;;42.93;21.23;;;;;;;12.21;49.25;98448.28;2162437;88;25814;-81
2021/11/26 13:50:38;;;;;;;33.88;21.45;;;;;;;12.17;49.58;98442.69;2161489;88;25958;-79
2021/11/26 13:54:28;;;;;;;31.68;20.80;;;;;;;12.15;49.16;98436.64;2163738;88;25872;-80
2021/11/26 13:57:52;;;;;;;38.15;23.05;;;;;;;12.11;48.93;98432.77;2176918;88;26045;-81
2021/11/26 14:01:27;;;;;;;33.40;20.72;;;;;;;12.01;48.77;98425.08;2171514;88;26000;-79
2021/11/26 14:04:56;;;;;;;35.90;21.00;;;;;;;11.99;48.99;98424.22;2171922;88;26497;-80
2021/11/26 14:08:18;;;;;;;32.87;20.67;;;;;;;11.97;48.78;98416.84;2200502;85;25714;-78
2021/11/26 14:11:53;;;;;;;34.83;20.65;;;;;;;11.91;48.65;98412.14;2175742;89;25743;-76
2021/11/26 14:15:22;;;;;;;29.10;20.20;;;;;;;11.84;48.54;98410.05;2165116;88;25828;-76
2021/11/26 14:19:18;;;;;;;42.15;20.65;;;;;;;11.79;48.42;98405.31;2162351;90;25885;-79
2021/11/26 14:22:41;;;;;;;39.63;19.80;;;;;;;11.76;48.91;98394.91;2168872;90;26014;-79
2021/11/26 14:26:21;;;;;;;37.48;21.73;;;;;;;11.78;48.64;98392.70;2178629;89;26031;-80
2021/11/26 14:29:52;;;;;;;;;;;;;;;11.75;48.34;98386.22;2203695;87;25740;-79
2021/11/26 14:33:28;;;;;;;32.58;21.15;;;;;;;11.69;48.00;98378.46;2206038;88;25964;-80
2021/11/26 14:36:52;;;;;;;31.90;21.75;;;;;;;11.61;47.83;98378.13;2210771;88;25753;-78
2021/11/26 14:40:22;;;;;;;35.03;21.57;;;;;;;11.52;47.58;98371.30;2227561;87;25828;-76
2021/11/26 14:43:45;;;;;;;32.85;21.02;;;;;;;11.44;47.40;98368.78;2223046;87;25699;-78
2021/11/26 14:47:10;;;;;;;33.33;21.40;;;;;;;11.36;47.28;98366.70;2211752;87;26343;-77
2021/11/26 14:50:35;;;;;;;29.10;20.72;;;;;;;11.29;47.17;98365.90;2210012;87;25780;-81
2021/11/26 14:54:01;;;;;;;32.48;21.35;;;;;;;11.21;47.08;98361.67;2209028;87;26182;-81
2021/11/26 14:57:26;;;;;;;27.02;20.17;;;;;;;11.18;46.94;98357.80;2218799;88;25874;-77
2021/11/26 15:00:49;;;;;;;33.83;21.60;;;;;;;11.11;46.89;98354.39;2204506;88;26462;-82
2021/11/26 15:04:12;;;;;;;32.93;21.40;;;;;;;11.06;46.81;98354.42;2179264;90;26422;-80
2021/11/26 15:07:33;;;;;;;37.88;23.35;;;;;;;11.02;46.78;98355.78;2161317;90;26309;-79
2021/11/26 15:10:55;;;;;;;42.27;21.77;;;;;;;11.02;47.50;98351.42;2185388;89;31042;-80
2021/11/26 15:14:19;;;;;;;32.58;20.72;;;;;;;11.04;47.44;98362.72;2205890;88;25721;-79
2021/11/26 15:17:44;;;;;;;38.23;22.22;;;;;;;10.98;47.37;98365.83;2221373;86;25742;-81
2021/11/26 15:21:05;;;;;;;29.32;20.65;;;;;;;10.90;47.33;98358.09;2240884;87;30197;-80
2021/11/26 15:24:26;;;;;;;26.70;19.25;;;;;;;10.85;47.33;98366.38;2260583;87;29210;-78
2021/11/26 15:27:56;;;;;;;30.92;19.92;;;;;;;10.83;47.42;98371.63;2215700;87;25775;-78
2021/11/26 15:31:20;;;;;;;29.80;20.92;;;;;;;10.81;47.46;98361.64;2191586;87;25866;-81
2021/11/26 15:34:50;;;;;;;36.38;20.52;;;;;;;10.81;47.51;98350.36;2151583;89;26018;-78
2021/11/26 15:38:31;;;;;;;28.55;19.30;;;;;;;10.78;47.56;98359.06;2169057;88;26477;-79
2021/11/26 15:41:57;;;;;;;33.45;19.82;;;;;;;10.77;47.65;98353.44;2201745;87;25947;-78
2021/11/26 15:45:20;;;;;;;29.07;18.48;;;;;;;10.78;47.69;98352.99;2174692;88;25854;-80
2021/11/26 15:48:41;;;;;;;23.32;18.32;;;;;;;10.78;47.74;98354.30;2177613;89;25965;-80
2021/11/26 15:52:11;;;;;;;26.00;18.32;;;;;;;10.77;47.83;98345.62;2172037;90;25872;-79
2021/11/26 15:55:33;;;;;;;27.75;17.52;;;;;;;10.78;47.88;98345.17;2180975;89;25863;-81